sensor_id;sensor_type;location;lat;lon;timestamp;P1;durP1;ratioP1;P2;durP2;ratioP2
48092;SDS011;33873;47.442;18.902;2022-08-18T00:02:12;6.37;;;3.75;;
48092;SDS011;33873;47.442;18.902;2022-08-18T00:04:57;8.55;;;3.60;;
48092;SDS011;33873;47.442;18.902;2022-08-18T00:07:27;7.37;;;4.20;;
48092;SDS011;33873;47.442;18.902;2022-08-18T00:09:57;6.57;;;3.17;;
48092;SDS011;33873;47.442;18.902;2022-08-18T00:12:33;5.72;;;3.60;;
48092;SDS011;33873;47.442;18.902;2022-08-18T00:15:07;6.93;;;3.47;;
48092;SDS011;33873;47.442;18.902;2022-08-18T00:17:37;5.00;;;3.28;;
48092;SDS011;33873;47.442;18.902;2022-08-18T00:20:06;5.57;;;3.50;;
48092;SDS011;33873;47.442;18.902;2022-08-18T00:22:36;5.90;;;3.65;;
48092;SDS011;33873;47.442;18.902;2022-08-18T00:25:06;7.50;;;3.72;;
48092;SDS011;33873;47.442;18.902;2022-08-18T00:27:38;7.32;;;3.53;;
48092;SDS011;33873;47.442;18.902;2022-08-18T00:30:09;8.07;;;4.00;;
48092;SDS011;33873;47.442;18.902;2022-08-18T00:32:40;5.75;;;3.62;;
48092;SDS011;33873;47.442;18.902;2022-08-18T00:35:10;5.37;;;3.30;;
48092;SDS011;33873;47.442;18.902;2022-08-18T00:37:41;6.47;;;3.53;;
48092;SDS011;33873;47.442;18.902;2022-08-18T00:40:10;6.35;;;3.47;;
48092;SDS011;33873;47.442;18.902;2022-08-18T00:42:51;6.30;;;3.58;;
48092;SDS011;33873;47.442;18.902;2022-08-18T00:45:22;5.30;;;3.55;;
48092;SDS011;33873;47.442;18.902;2022-08-18T00:47:53;7.00;;;3.45;;
48092;SDS011;33873;47.442;18.902;2022-08-18T00:50:23;8.32;;;3.40;;
48092;SDS011;33873;47.442;18.902;2022-08-18T00:52:59;5.68;;;3.70;;
48092;SDS011;33873;47.442;18.902;2022-08-18T00:57:59;5.80;;;3.65;;
48092;SDS011;33873;47.442;18.902;2022-08-18T01:00:30;6.95;;;3.87;;
48092;SDS011;33873;47.442;18.902;2022-08-18T01:03:00;6.57;;;3.83;;
48092;SDS011;33873;47.442;18.902;2022-08-18T01:05:32;6.85;;;4.10;;
48092;SDS011;33873;47.442;18.902;2022-08-18T01:08:11;7.80;;;4.40;;
48092;SDS011;33873;47.442;18.902;2022-08-18T01:10:40;7.80;;;4.12;;
48092;SDS011;33873;47.442;18.902;2022-08-18T01:13:08;11.02;;;4.28;;
48092;SDS011;33873;47.442;18.902;2022-08-18T01:15:36;6.62;;;4.37;;
48092;SDS011;33873;47.442;18.902;2022-08-18T01:18:09;6.57;;;3.80;;
48092;SDS011;33873;47.442;18.902;2022-08-18T01:21:04;8.60;;;4.60;;
48092;SDS011;33873;47.442;18.902;2022-08-18T01:23:55;8.10;;;4.62;;
48092;SDS011;33873;47.442;18.902;2022-08-18T01:26:24;8.23;;;4.25;;
48092;SDS011;33873;47.442;18.902;2022-08-18T01:28:53;6.75;;;4.03;;
48092;SDS011;33873;47.442;18.902;2022-08-18T01:34:07;7.55;;;4.40;;
48092;SDS011;33873;47.442;18.902;2022-08-18T01:36:37;6.97;;;4.40;;
48092;SDS011;33873;47.442;18.902;2022-08-18T01:39:07;7.57;;;4.12;;
48092;SDS011;33873;47.442;18.902;2022-08-18T01:41:37;8.82;;;4.15;;
48092;SDS011;33873;47.442;18.902;2022-08-18T01:44:06;9.27;;;5.10;;
48092;SDS011;33873;47.442;18.902;2022-08-18T01:46:38;9.20;;;4.30;;
48092;SDS011;33873;47.442;18.902;2022-08-18T01:49:08;7.20;;;4.90;;
48092;SDS011;33873;47.442;18.902;2022-08-18T01:51:36;7.62;;;4.70;;
48092;SDS011;33873;47.442;18.902;2022-08-18T01:54:08;7.65;;;5.10;;
48092;SDS011;33873;47.442;18.902;2022-08-18T01:56:37;11.65;;;5.15;;
48092;SDS011;33873;47.442;18.902;2022-08-18T01:59:05;7.70;;;5.20;;
48092;SDS011;33873;47.442;18.902;2022-08-18T02:01:37;8.45;;;5.28;;
48092;SDS011;33873;47.442;18.902;2022-08-18T02:04:15;7.82;;;5.32;;
48092;SDS011;33873;47.442;18.902;2022-08-18T02:07:01;7.50;;;5.22;;
48092;SDS011;33873;47.442;18.902;2022-08-18T02:09:30;8.65;;;5.70;;
48092;SDS011;33873;47.442;18.902;2022-08-18T02:12:00;8.85;;;5.62;;
48092;SDS011;33873;47.442;18.902;2022-08-18T02:14:28;10.02;;;5.68;;
48092;SDS011;33873;47.442;18.902;2022-08-18T02:16:59;12.37;;;5.78;;
48092;SDS011;33873;47.442;18.902;2022-08-18T02:19:44;8.73;;;4.82;;
48092;SDS011;33873;47.442;18.902;2022-08-18T02:22:15;10.20;;;4.05;;
48092;SDS011;33873;47.442;18.902;2022-08-18T02:24:44;10.38;;;5.25;;
48092;SDS011;33873;47.442;18.902;2022-08-18T02:27:13;9.82;;;5.45;;
48092;SDS011;33873;47.442;18.902;2022-08-18T02:29:41;7.53;;;5.40;;
48092;SDS011;33873;47.442;18.902;2022-08-18T02:32:09;10.30;;;6.20;;
48092;SDS011;33873;47.442;18.902;2022-08-18T02:34:36;8.38;;;5.32;;
48092;SDS011;33873;47.442;18.902;2022-08-18T02:37:04;9.05;;;5.40;;
48092;SDS011;33873;47.442;18.902;2022-08-18T02:39:32;10.77;;;6.57;;
48092;SDS011;33873;47.442;18.902;2022-08-18T02:42:01;9.15;;;5.30;;
48092;SDS011;33873;47.442;18.902;2022-08-18T02:44:29;10.27;;;6.03;;
48092;SDS011;33873;47.442;18.902;2022-08-18T02:46:58;13.62;;;6.85;;
48092;SDS011;33873;47.442;18.902;2022-08-18T02:49:26;11.12;;;6.95;;
48092;SDS011;33873;47.442;18.902;2022-08-18T02:51:54;9.25;;;6.70;;
48092;SDS011;33873;47.442;18.902;2022-08-18T02:54:22;9.35;;;6.00;;
48092;SDS011;33873;47.442;18.902;2022-08-18T02:56:50;13.00;;;6.05;;
48092;SDS011;33873;47.442;18.902;2022-08-18T02:59:20;10.07;;;7.15;;
48092;SDS011;33873;47.442;18.902;2022-08-18T03:01:51;12.05;;;7.53;;
48092;SDS011;33873;47.442;18.902;2022-08-18T03:04:24;9.07;;;7.15;;
48092;SDS011;33873;47.442;18.902;2022-08-18T03:06:57;10.43;;;7.78;;
48092;SDS011;33873;47.442;18.902;2022-08-18T03:09:28;10.82;;;7.72;;
48092;SDS011;33873;47.442;18.902;2022-08-18T03:11:56;13.45;;;7.15;;
48092;SDS011;33873;47.442;18.902;2022-08-18T03:14:24;10.77;;;7.12;;
48092;SDS011;33873;47.442;18.902;2022-08-18T03:16:52;11.43;;;7.30;;
48092;SDS011;33873;47.442;18.902;2022-08-18T03:19:25;11.75;;;6.57;;
48092;SDS011;33873;47.442;18.902;2022-08-18T03:21:56;10.77;;;7.82;;
48092;SDS011;33873;47.442;18.902;2022-08-18T03:24:29;9.30;;;7.78;;
48092;SDS011;33873;47.442;18.902;2022-08-18T03:26:59;13.48;;;8.10;;
48092;SDS011;33873;47.442;18.902;2022-08-18T03:29:29;13.13;;;8.30;;
48092;SDS011;33873;47.442;18.902;2022-08-18T03:32:00;16.70;;;7.93;;
48092;SDS011;33873;47.442;18.902;2022-08-18T03:34:28;12.68;;;7.55;;
48092;SDS011;33873;47.442;18.902;2022-08-18T03:36:56;8.95;;;6.62;;
48092;SDS011;33873;47.442;18.902;2022-08-18T03:39:25;15.60;;;8.65;;
48092;SDS011;33873;47.442;18.902;2022-08-18T03:41:54;10.35;;;7.40;;
48092;SDS011;33873;47.442;18.902;2022-08-18T03:44:28;11.48;;;8.52;;
48092;SDS011;33873;47.442;18.902;2022-08-18T03:46:58;12.27;;;8.95;;
48092;SDS011;33873;47.442;18.902;2022-08-18T03:49:27;12.77;;;8.85;;
48092;SDS011;33873;47.442;18.902;2022-08-18T03:51:55;11.63;;;8.57;;
48092;SDS011;33873;47.442;18.902;2022-08-18T03:54:26;13.90;;;8.38;;
48092;SDS011;33873;47.442;18.902;2022-08-18T03:56:56;11.98;;;7.70;;
48092;SDS011;33873;47.442;18.902;2022-08-18T03:59:24;12.55;;;7.07;;
48092;SDS011;33873;47.442;18.902;2022-08-18T04:01:53;10.07;;;7.87;;
48092;SDS011;33873;47.442;18.902;2022-08-18T04:04:23;11.70;;;9.25;;
48092;SDS011;33873;47.442;18.902;2022-08-18T04:06:53;12.57;;;8.68;;
48092;SDS011;33873;47.442;18.902;2022-08-18T04:09:25;16.42;;;8.80;;
48092;SDS011;33873;47.442;18.902;2022-08-18T04:11:54;11.82;;;8.75;;
48092;SDS011;33873;47.442;18.902;2022-08-18T04:14:23;15.77;;;9.95;;
48092;SDS011;33873;47.442;18.902;2022-08-18T04:16:56;17.90;;;9.20;;
48092;SDS011;33873;47.442;18.902;2022-08-18T04:19:24;19.48;;;9.30;;
48092;SDS011;33873;47.442;18.902;2022-08-18T04:21:55;13.90;;;8.38;;
48092;SDS011;33873;47.442;18.902;2022-08-18T04:24:24;11.77;;;8.32;;
48092;SDS011;33873;47.442;18.902;2022-08-18T04:26:57;11.90;;;8.90;;
48092;SDS011;33873;47.442;18.902;2022-08-18T04:29:26;13.75;;;8.63;;
48092;SDS011;33873;47.442;18.902;2022-08-18T04:31:54;11.90;;;9.00;;
48092;SDS011;33873;47.442;18.902;2022-08-18T04:34:22;12.90;;;8.65;;
48092;SDS011;33873;47.442;18.902;2022-08-18T04:36:50;14.30;;;9.10;;
48092;SDS011;33873;47.442;18.902;2022-08-18T04:39:21;12.57;;;9.65;;
48092;SDS011;33873;47.442;18.902;2022-08-18T04:41:50;14.35;;;9.13;;
48092;SDS011;33873;47.442;18.902;2022-08-18T04:44:18;11.57;;;9.02;;
48092;SDS011;33873;47.442;18.902;2022-08-18T04:46:47;20.88;;;9.48;;
48092;SDS011;33873;47.442;18.902;2022-08-18T04:49:18;15.90;;;9.48;;
48092;SDS011;33873;47.442;18.902;2022-08-18T04:51:48;15.38;;;8.88;;
48092;SDS011;33873;47.442;18.902;2022-08-18T04:55:08;14.98;;;9.85;;
48092;SDS011;33873;47.442;18.902;2022-08-18T04:57:37;13.68;;;9.10;;
48092;SDS011;33873;47.442;18.902;2022-08-18T05:00:05;13.90;;;10.05;;
48092;SDS011;33873;47.442;18.902;2022-08-18T05:02:33;14.55;;;9.32;;
48092;SDS011;33873;47.442;18.902;2022-08-18T05:05:01;12.95;;;9.20;;
48092;SDS011;33873;47.442;18.902;2022-08-18T05:07:30;14.52;;;10.50;;
48092;SDS011;33873;47.442;18.902;2022-08-18T05:09:58;16.33;;;9.52;;
48092;SDS011;33873;47.442;18.902;2022-08-18T05:12:25;14.23;;;9.70;;
48092;SDS011;33873;47.442;18.902;2022-08-18T05:14:54;16.17;;;10.20;;
48092;SDS011;33873;47.442;18.902;2022-08-18T05:17:24;12.27;;;9.48;;
48092;SDS011;33873;47.442;18.902;2022-08-18T05:19:59;13.48;;;8.57;;
48092;SDS011;33873;47.442;18.902;2022-08-18T05:22:35;18.40;;;9.93;;
48092;SDS011;33873;47.442;18.902;2022-08-18T05:25:07;13.70;;;10.18;;
48092;SDS011;33873;47.442;18.902;2022-08-18T05:27:39;13.10;;;9.88;;
48092;SDS011;33873;47.442;18.902;2022-08-18T05:30:09;12.32;;;9.65;;
48092;SDS011;33873;47.442;18.902;2022-08-18T05:32:39;17.73;;;10.70;;
48092;SDS011;33873;47.442;18.902;2022-08-18T05:35:33;13.38;;;9.40;;
48092;SDS011;33873;47.442;18.902;2022-08-18T05:38:09;13.55;;;10.00;;
48092;SDS011;33873;47.442;18.902;2022-08-18T05:41:02;13.32;;;9.70;;
48092;SDS011;33873;47.442;18.902;2022-08-18T05:43:40;12.87;;;8.83;;
48092;SDS011;33873;47.442;18.902;2022-08-18T05:46:20;12.10;;;9.48;;
48092;SDS011;33873;47.442;18.902;2022-08-18T05:48:52;16.45;;;9.93;;
48092;SDS011;33873;47.442;18.902;2022-08-18T05:51:23;13.45;;;10.00;;
48092;SDS011;33873;47.442;18.902;2022-08-18T05:53:54;14.48;;;9.25;;
48092;SDS011;33873;47.442;18.902;2022-08-18T05:56:41;11.65;;;8.88;;
48092;SDS011;33873;47.442;18.902;2022-08-18T05:59:16;13.40;;;9.20;;
48092;SDS011;33873;47.442;18.902;2022-08-18T06:01:48;17.98;;;9.95;;
48092;SDS011;33873;47.442;18.902;2022-08-18T06:04:22;11.38;;;9.75;;
48092;SDS011;33873;47.442;18.902;2022-08-18T06:07:06;13.98;;;9.05;;
48092;SDS011;33873;47.442;18.902;2022-08-18T06:12:10;15.52;;;9.45;;
48092;SDS011;33873;47.442;18.902;2022-08-18T06:15:28;11.82;;;8.45;;
48092;SDS011;33873;47.442;18.902;2022-08-18T06:20:29;15.35;;;9.52;;
48092;SDS011;33873;47.442;18.902;2022-08-18T06:23:21;12.00;;;9.25;;
48092;SDS011;33873;47.442;18.902;2022-08-18T06:26:09;16.90;;;9.50;;
48092;SDS011;33873;47.442;18.902;2022-08-18T06:28:46;14.77;;;9.02;;
48092;SDS011;33873;47.442;18.902;2022-08-18T06:31:22;13.30;;;8.20;;
48092;SDS011;33873;47.442;18.902;2022-08-18T06:34:17;13.50;;;9.38;;
48092;SDS011;33873;47.442;18.902;2022-08-18T06:37:16;13.50;;;8.82;;
48092;SDS011;33873;47.442;18.902;2022-08-18T06:39:53;12.52;;;9.43;;
48092;SDS011;33873;47.442;18.902;2022-08-18T06:42:24;12.05;;;8.98;;
48092;SDS011;33873;47.442;18.902;2022-08-18T06:45:01;14.05;;;9.70;;
48092;SDS011;33873;47.442;18.902;2022-08-18T06:50:10;13.65;;;9.38;;
48092;SDS011;33873;47.442;18.902;2022-08-18T06:52:56;12.90;;;8.50;;
48092;SDS011;33873;47.442;18.902;2022-08-18T06:55:39;13.90;;;8.98;;
48092;SDS011;33873;47.442;18.902;2022-08-18T07:00:43;13.27;;;9.65;;
48092;SDS011;33873;47.442;18.902;2022-08-18T07:06:04;15.00;;;9.18;;
48092;SDS011;33873;47.442;18.902;2022-08-18T07:14:20;12.07;;;9.27;;
48092;SDS011;33873;47.442;18.902;2022-08-18T07:16:49;16.17;;;9.48;;
48092;SDS011;33873;47.442;18.902;2022-08-18T07:19:28;13.27;;;9.27;;
48092;SDS011;33873;47.442;18.902;2022-08-18T07:22:13;13.90;;;8.75;;
48092;SDS011;33873;47.442;18.902;2022-08-18T07:24:48;13.07;;;8.98;;
48092;SDS011;33873;47.442;18.902;2022-08-18T07:27:18;13.48;;;8.98;;
48092;SDS011;33873;47.442;18.902;2022-08-18T07:30:08;15.32;;;8.57;;
48092;SDS011;33873;47.442;18.902;2022-08-18T07:35:35;12.37;;;8.25;;
48092;SDS011;33873;47.442;18.902;2022-08-18T07:38:12;11.25;;;8.32;;
48092;SDS011;33873;47.442;18.902;2022-08-18T07:41:10;13.90;;;8.57;;
48092;SDS011;33873;47.442;18.902;2022-08-18T07:49:05;13.23;;;8.93;;
48092;SDS011;33873;47.442;18.902;2022-08-18T07:51:39;16.75;;;8.15;;
48092;SDS011;33873;47.442;18.902;2022-08-18T07:57:22;9.93;;;7.32;;
48092;SDS011;33873;47.442;18.902;2022-08-18T08:03:03;10.13;;;7.47;;
48092;SDS011;33873;47.442;18.902;2022-08-18T08:25:02;12.70;;;7.47;;
48092;SDS011;33873;47.442;18.902;2022-08-18T08:31:24;12.05;;;7.37;;
48092;SDS011;33873;47.442;18.902;2022-08-18T08:34:11;13.68;;;7.90;;
48092;SDS011;33873;47.442;18.902;2022-08-18T08:36:42;10.15;;;7.25;;
48092;SDS011;33873;47.442;18.902;2022-08-18T08:39:23;14.73;;;7.37;;
48092;SDS011;33873;47.442;18.902;2022-08-18T08:42:05;18.60;;;8.25;;
48092;SDS011;33873;47.442;18.902;2022-08-18T08:44:57;9.05;;;7.03;;
48092;SDS011;33873;47.442;18.902;2022-08-18T08:50:06;9.75;;;6.40;;
48092;SDS011;33873;47.442;18.902;2022-08-18T08:52:50;11.93;;;7.68;;
48092;SDS011;33873;47.442;18.902;2022-08-18T08:55:36;13.00;;;6.97;;
48092;SDS011;33873;47.442;18.902;2022-08-18T09:09:32;9.63;;;7.03;;
48092;SDS011;33873;47.442;18.902;2022-08-18T09:22:54;8.52;;;6.28;;
48092;SDS011;33873;47.442;18.902;2022-08-18T09:25:43;11.23;;;6.85;;
48092;SDS011;33873;47.442;18.902;2022-08-18T09:30:50;11.88;;;7.15;;
48092;SDS011;33873;47.442;18.902;2022-08-18T09:42:08;11.07;;;6.53;;
48092;SDS011;33873;47.442;18.902;2022-08-18T09:49:57;9.02;;;5.87;;
48092;SDS011;33873;47.442;18.902;2022-08-18T09:52:57;14.07;;;6.70;;
48092;SDS011;33873;47.442;18.902;2022-08-18T10:00:44;10.38;;;5.60;;
48092;SDS011;33873;47.442;18.902;2022-08-18T10:03:17;10.57;;;6.10;;
48092;SDS011;33873;47.442;18.902;2022-08-18T10:06:04;12.70;;;6.10;;
48092;SDS011;33873;47.442;18.902;2022-08-18T10:15:16;11.70;;;5.68;;
48092;SDS011;33873;47.442;18.902;2022-08-18T10:29:05;8.80;;;5.03;;
48092;SDS011;33873;47.442;18.902;2022-08-18T10:34:35;9.98;;;6.78;;
48092;SDS011;33873;47.442;18.902;2022-08-18T10:42:43;7.65;;;5.07;;
48092;SDS011;33873;47.442;18.902;2022-08-18T10:45:27;10.00;;;5.87;;
48092;SDS011;33873;47.442;18.902;2022-08-18T10:48:43;9.80;;;5.15;;
48092;SDS011;33873;47.442;18.902;2022-08-18T11:04:44;7.65;;;4.87;;
48092;SDS011;33873;47.442;18.902;2022-08-18T11:07:26;7.95;;;4.78;;
48092;SDS011;33873;47.442;18.902;2022-08-18T11:10:00;7.62;;;4.53;;
48092;SDS011;33873;47.442;18.902;2022-08-18T11:18:40;8.20;;;4.57;;
48092;SDS011;33873;47.442;18.902;2022-08-18T11:26:35;6.75;;;4.55;;
48092;SDS011;33873;47.442;18.902;2022-08-18T11:35:13;6.47;;;3.50;;
48092;SDS011;33873;47.442;18.902;2022-08-18T11:37:53;9.30;;;4.25;;
48092;SDS011;33873;47.442;18.902;2022-08-18T11:40:33;9.38;;;4.18;;
48092;SDS011;33873;47.442;18.902;2022-08-18T11:43:27;9.02;;;3.83;;
48092;SDS011;33873;47.442;18.902;2022-08-18T11:46:13;6.87;;;4.37;;
48092;SDS011;33873;47.442;18.902;2022-08-18T11:48:59;8.30;;;3.70;;
48092;SDS011;33873;47.442;18.902;2022-08-18T11:51:31;10.43;;;4.15;;
48092;SDS011;33873;47.442;18.902;2022-08-18T11:54:22;6.65;;;4.20;;
48092;SDS011;33873;47.442;18.902;2022-08-18T11:56:50;7.75;;;4.00;;
48092;SDS011;33873;47.442;18.902;2022-08-18T12:02:15;9.45;;;4.18;;
48092;SDS011;33873;47.442;18.902;2022-08-18T12:04:47;7.53;;;4.47;;
48092;SDS011;33873;47.442;18.902;2022-08-18T12:07:24;6.78;;;4.30;;
48092;SDS011;33873;47.442;18.902;2022-08-18T12:12:55;9.70;;;4.80;;
48092;SDS011;33873;47.442;18.902;2022-08-18T12:15:28;8.70;;;4.00;;
48092;SDS011;33873;47.442;18.902;2022-08-18T12:18:14;10.05;;;4.65;;
48092;SDS011;33873;47.442;18.902;2022-08-18T12:21:04;9.00;;;4.50;;
48092;SDS011;33873;47.442;18.902;2022-08-18T12:23:32;10.63;;;4.68;;
48092;SDS011;33873;47.442;18.902;2022-08-18T12:26:11;7.65;;;3.80;;
48092;SDS011;33873;47.442;18.902;2022-08-18T12:28:59;9.43;;;4.15;;
48092;SDS011;33873;47.442;18.902;2022-08-18T12:31:28;9.68;;;5.12;;
48092;SDS011;33873;47.442;18.902;2022-08-18T12:34:16;8.75;;;4.50;;
48092;SDS011;33873;47.442;18.902;2022-08-18T12:36:56;10.07;;;4.65;;
48092;SDS011;33873;47.442;18.902;2022-08-18T12:41:55;10.32;;;3.97;;
48092;SDS011;33873;47.442;18.902;2022-08-18T12:44:26;5.97;;;3.75;;
48092;SDS011;33873;47.442;18.902;2022-08-18T12:46:53;8.07;;;4.25;;
48092;SDS011;33873;47.442;18.902;2022-08-18T12:49:23;7.00;;;3.78;;
48092;SDS011;33873;47.442;18.902;2022-08-18T12:51:53;7.62;;;3.80;;
48092;SDS011;33873;47.442;18.902;2022-08-18T12:54:24;7.50;;;3.65;;
48092;SDS011;33873;47.442;18.902;2022-08-18T12:56:53;10.70;;;3.40;;
48092;SDS011;33873;47.442;18.902;2022-08-18T12:59:22;8.70;;;3.87;;
48092;SDS011;33873;47.442;18.902;2022-08-18T13:01:51;9.98;;;3.50;;
48092;SDS011;33873;47.442;18.902;2022-08-18T13:04:26;6.93;;;3.92;;
48092;SDS011;33873;47.442;18.902;2022-08-18T13:06:57;5.35;;;3.53;;
48092;SDS011;33873;47.442;18.902;2022-08-18T13:09:33;10.27;;;4.35;;
48092;SDS011;33873;47.442;18.902;2022-08-18T13:12:20;7.15;;;3.85;;
48092;SDS011;33873;47.442;18.902;2022-08-18T13:14:50;6.20;;;3.42;;
48092;SDS011;33873;47.442;18.902;2022-08-18T13:17:21;8.27;;;3.53;;
48092;SDS011;33873;47.442;18.902;2022-08-18T13:20:04;6.87;;;3.65;;
48092;SDS011;33873;47.442;18.902;2022-08-18T13:22:38;7.62;;;4.10;;
48092;SDS011;33873;47.442;18.902;2022-08-18T13:25:07;7.00;;;3.53;;
48092;SDS011;33873;47.442;18.902;2022-08-18T13:27:59;7.40;;;3.45;;
48092;SDS011;33873;47.442;18.902;2022-08-18T13:30:28;6.47;;;3.20;;
48092;SDS011;33873;47.442;18.902;2022-08-18T13:32:59;10.40;;;3.92;;
48092;SDS011;33873;47.442;18.902;2022-08-18T13:35:51;8.82;;;3.58;;
48092;SDS011;33873;47.442;18.902;2022-08-18T13:38:21;10.07;;;3.20;;
48092;SDS011;33873;47.442;18.902;2022-08-18T13:40:55;5.25;;;2.90;;
48092;SDS011;33873;47.442;18.902;2022-08-18T13:43:30;6.75;;;3.67;;
48092;SDS011;33873;47.442;18.902;2022-08-18T13:46:01;6.07;;;3.45;;
48092;SDS011;33873;47.442;18.902;2022-08-18T13:48:30;8.70;;;3.70;;
48092;SDS011;33873;47.442;18.902;2022-08-18T13:51:00;14.05;;;3.47;;
48092;SDS011;33873;47.442;18.902;2022-08-18T13:53:28;10.70;;;3.55;;
48092;SDS011;33873;47.442;18.902;2022-08-18T13:55:58;7.78;;;3.20;;
48092;SDS011;33873;47.442;18.902;2022-08-18T13:58:26;6.50;;;3.20;;
48092;SDS011;33873;47.442;18.902;2022-08-18T14:00:56;9.18;;;3.10;;
48092;SDS011;33873;47.442;18.902;2022-08-18T14:03:45;7.10;;;4.07;;
48092;SDS011;33873;47.442;18.902;2022-08-18T14:06:14;6.50;;;3.05;;
48092;SDS011;33873;47.442;18.902;2022-08-18T14:08:51;9.05;;;3.87;;
48092;SDS011;33873;47.442;18.902;2022-08-18T14:11:21;7.32;;;3.30;;
48092;SDS011;33873;47.442;18.902;2022-08-18T14:13:59;10.18;;;3.22;;
48092;SDS011;33873;47.442;18.902;2022-08-18T14:16:28;8.40;;;3.10;;
48092;SDS011;33873;47.442;18.902;2022-08-18T14:18:56;10.13;;;3.30;;
48092;SDS011;33873;47.442;18.902;2022-08-18T14:21:45;7.20;;;3.05;;
48092;SDS011;33873;47.442;18.902;2022-08-18T14:24:39;7.97;;;3.50;;
48092;SDS011;33873;47.442;18.902;2022-08-18T14:27:30;7.95;;;3.30;;
48092;SDS011;33873;47.442;18.902;2022-08-18T14:30:05;5.25;;;2.87;;
48092;SDS011;33873;47.442;18.902;2022-08-18T14:32:35;7.28;;;3.40;;
48092;SDS011;33873;47.442;18.902;2022-08-18T14:35:15;8.15;;;3.03;;
48092;SDS011;33873;47.442;18.902;2022-08-18T14:38:05;5.97;;;3.30;;
48092;SDS011;33873;47.442;18.902;2022-08-18T14:40:37;5.05;;;2.60;;
48092;SDS011;33873;47.442;18.902;2022-08-18T14:43:13;6.90;;;2.97;;
48092;SDS011;33873;47.442;18.902;2022-08-18T14:45:43;6.28;;;2.90;;
48092;SDS011;33873;47.442;18.902;2022-08-18T14:48:17;9.05;;;3.17;;
48092;SDS011;33873;47.442;18.902;2022-08-18T14:50:48;6.05;;;2.47;;
48092;SDS011;33873;47.442;18.902;2022-08-18T14:53:19;4.53;;;2.62;;
48092;SDS011;33873;47.442;18.902;2022-08-18T14:55:50;7.37;;;3.00;;
48092;SDS011;33873;47.442;18.902;2022-08-18T14:58:23;8.07;;;3.17;;
48092;SDS011;33873;47.442;18.902;2022-08-18T15:00:55;5.85;;;2.70;;
48092;SDS011;33873;47.442;18.902;2022-08-18T15:03:25;8.88;;;3.08;;
48092;SDS011;33873;47.442;18.902;2022-08-18T15:05:58;6.20;;;2.45;;
48092;SDS011;33873;47.442;18.902;2022-08-18T15:08:32;10.40;;;3.40;;
48092;SDS011;33873;47.442;18.902;2022-08-18T15:11:02;6.62;;;2.95;;
48092;SDS011;33873;47.442;18.902;2022-08-18T15:13:38;5.95;;;2.78;;
48092;SDS011;33873;47.442;18.902;2022-08-18T15:16:08;8.52;;;3.47;;
48092;SDS011;33873;47.442;18.902;2022-08-18T15:18:40;7.93;;;3.10;;
48092;SDS011;33873;47.442;18.902;2022-08-18T15:21:10;6.93;;;3.05;;
48092;SDS011;33873;47.442;18.902;2022-08-18T15:24:06;7.70;;;3.20;;
48092;SDS011;33873;47.442;18.902;2022-08-18T15:26:53;10.13;;;3.33;;
48092;SDS011;33873;47.442;18.902;2022-08-18T15:29:29;11.75;;;3.33;;
48092;SDS011;33873;47.442;18.902;2022-08-18T15:31:57;8.07;;;2.55;;
48092;SDS011;33873;47.442;18.902;2022-08-18T15:34:33;6.68;;;2.83;;
48092;SDS011;33873;47.442;18.902;2022-08-18T15:37:17;6.55;;;2.95;;
48092;SDS011;33873;47.442;18.902;2022-08-18T15:43:07;8.18;;;3.03;;
48092;SDS011;33873;47.442;18.902;2022-08-18T15:45:40;4.55;;;2.45;;
48092;SDS011;33873;47.442;18.902;2022-08-18T15:48:24;9.52;;;3.03;;
48092;SDS011;33873;47.442;18.902;2022-08-18T15:50:54;5.85;;;2.50;;
48092;SDS011;33873;47.442;18.902;2022-08-18T15:53:24;8.48;;;3.08;;
48092;SDS011;33873;47.442;18.902;2022-08-18T15:55:56;8.55;;;2.87;;
48092;SDS011;33873;47.442;18.902;2022-08-18T15:58:30;6.22;;;2.85;;
48092;SDS011;33873;47.442;18.902;2022-08-18T16:00:57;6.87;;;2.75;;
48092;SDS011;33873;47.442;18.902;2022-08-18T16:03:26;6.22;;;2.83;;
48092;SDS011;33873;47.442;18.902;2022-08-18T16:05:57;7.50;;;2.78;;
48092;SDS011;33873;47.442;18.902;2022-08-18T16:08:26;5.82;;;3.08;;
48092;SDS011;33873;47.442;18.902;2022-08-18T16:10:54;5.75;;;3.17;;
48092;SDS011;33873;47.442;18.902;2022-08-18T16:13:22;7.95;;;3.35;;
48092;SDS011;33873;47.442;18.902;2022-08-18T16:15:52;8.35;;;2.95;;
48092;SDS011;33873;47.442;18.902;2022-08-18T16:18:20;13.80;;;3.00;;
48092;SDS011;33873;47.442;18.902;2022-08-18T16:20:47;5.80;;;2.62;;
48092;SDS011;33873;47.442;18.902;2022-08-18T16:23:19;8.95;;;3.85;;
48092;SDS011;33873;47.442;18.902;2022-08-18T16:25:46;6.40;;;3.00;;
48092;SDS011;33873;47.442;18.902;2022-08-18T16:28:14;7.37;;;2.80;;
48092;SDS011;33873;47.442;18.902;2022-08-18T16:30:41;7.85;;;2.60;;
48092;SDS011;33873;47.442;18.902;2022-08-18T16:33:09;8.25;;;3.45;;
48092;SDS011;33873;47.442;18.902;2022-08-18T16:35:37;6.37;;;2.70;;
48092;SDS011;33873;47.442;18.902;2022-08-18T16:38:06;5.30;;;2.55;;
48092;SDS011;33873;47.442;18.902;2022-08-18T16:40:35;11.75;;;3.92;;
48092;SDS011;33873;47.442;18.902;2022-08-18T16:43:03;6.18;;;2.83;;
48092;SDS011;33873;47.442;18.902;2022-08-18T16:45:35;9.20;;;3.35;;
48092;SDS011;33873;47.442;18.902;2022-08-18T16:48:03;8.95;;;3.17;;
48092;SDS011;33873;47.442;18.902;2022-08-18T16:50:37;6.47;;;3.00;;
48092;SDS011;33873;47.442;18.902;2022-08-18T16:53:08;8.20;;;2.92;;
48092;SDS011;33873;47.442;18.902;2022-08-18T16:55:36;9.35;;;2.80;;
48092;SDS011;33873;47.442;18.902;2022-08-18T16:58:04;8.10;;;3.10;;
48092;SDS011;33873;47.442;18.902;2022-08-18T17:00:52;6.72;;;3.40;;
48092;SDS011;33873;47.442;18.902;2022-08-18T17:03:45;11.50;;;3.35;;
48092;SDS011;33873;47.442;18.902;2022-08-18T17:06:47;10.70;;;3.45;;
48092;SDS011;33873;47.442;18.902;2022-08-18T17:09:16;9.43;;;3.28;;
48092;SDS011;33873;47.442;18.902;2022-08-18T17:11:44;5.75;;;2.65;;
48092;SDS011;33873;47.442;18.902;2022-08-18T17:16:51;8.43;;;3.30;;
48092;SDS011;33873;47.442;18.902;2022-08-18T17:19:22;8.73;;;3.37;;
48092;SDS011;33873;47.442;18.902;2022-08-18T17:21:53;7.30;;;3.35;;
48092;SDS011;33873;47.442;18.902;2022-08-18T17:24:20;9.90;;;3.03;;
48092;SDS011;33873;47.442;18.902;2022-08-18T17:27:01;7.45;;;3.17;;
48092;SDS011;33873;47.442;18.902;2022-08-18T17:32:24;9.57;;;3.40;;
48092;SDS011;33873;47.442;18.902;2022-08-18T17:35:03;7.97;;;3.17;;
48092;SDS011;33873;47.442;18.902;2022-08-18T17:37:33;10.85;;;3.58;;
48092;SDS011;33873;47.442;18.902;2022-08-18T17:40:07;7.03;;;2.85;;
48092;SDS011;33873;47.442;18.902;2022-08-18T17:42:41;8.07;;;3.65;;
48092;SDS011;33873;47.442;18.902;2022-08-18T17:45:10;14.45;;;4.45;;
48092;SDS011;33873;47.442;18.902;2022-08-18T17:47:59;12.95;;;4.80;;
48092;SDS011;33873;47.442;18.902;2022-08-18T17:53:20;7.10;;;3.40;;
48092;SDS011;33873;47.442;18.902;2022-08-18T17:55:50;9.57;;;3.58;;
48092;SDS011;33873;47.442;18.902;2022-08-18T17:58:29;11.55;;;3.92;;
48092;SDS011;33873;47.442;18.902;2022-08-18T18:03:29;6.35;;;3.25;;
48092;SDS011;33873;47.442;18.902;2022-08-18T18:05:58;8.88;;;3.85;;
48092;SDS011;33873;47.442;18.902;2022-08-18T18:11:35;10.65;;;3.53;;
48092;SDS011;33873;47.442;18.902;2022-08-18T18:14:28;11.63;;;3.90;;
48092;SDS011;33873;47.442;18.902;2022-08-18T18:23:14;14.63;;;3.58;;
48092;SDS011;33873;47.442;18.902;2022-08-18T18:25:42;10.68;;;3.58;;
48092;SDS011;33873;47.442;18.902;2022-08-18T18:33:55;15.43;;;3.95;;